createdAt,value
2023-04-18T00:01:47.341Z,10.10
2023-04-18T00:08:49.188Z,10.15
2023-04-18T00:15:54.081Z,10.10
2023-04-18T00:22:55.984Z,10.28
2023-04-18T00:29:57.526Z,10.30
2023-04-18T00:36:59.063Z,10.25
2023-04-18T00:44:00.671Z,10.41
2023-04-18T00:51:02.384Z,10.35
2023-04-18T00:58:04.297Z,10.35
2023-04-18T01:05:06.648Z,10.22
2023-04-18T01:12:08.252Z,10.36
2023-04-18T01:19:09.832Z,10.41
2023-04-18T01:26:11.395Z,10.38
2023-04-18T01:33:13.108Z,10.51
2023-04-18T01:40:14.894Z,10.52
2023-04-18T01:47:16.506Z,10.40
2023-04-18T01:54:18.057Z,10.18
2023-04-18T02:01:19.850Z,10.32
2023-04-18T02:08:21.543Z,10.05
2023-04-18T02:15:24.096Z,10.14
2023-04-18T02:22:25.661Z,10.12
2023-04-18T02:29:27.985Z,10.20
2023-04-18T02:36:29.614Z,10.02
2023-04-18T02:43:31.630Z,10.12
2023-04-18T02:50:33.223Z,9.91
2023-04-18T02:57:34.865Z,9.87
2023-04-18T03:04:46.221Z,10.30
2023-04-18T03:11:48.259Z,10.23
2023-04-18T03:18:52.050Z,10.11
2023-04-18T03:25:55.813Z,10.12
2023-04-18T03:32:58.655Z,10.26
2023-04-18T03:40:00.590Z,10.40
2023-04-18T03:47:04.529Z,10.24
2023-04-18T03:54:08.904Z,10.37
2023-04-18T04:01:10.774Z,10.42
2023-04-18T04:08:14.302Z,10.28
2023-04-18T04:15:16.050Z,10.33
2023-04-18T04:22:24.775Z,10.33
2023-04-18T04:29:26.926Z,10.24
2023-04-18T04:36:28.636Z,9.87
2023-04-18T04:43:33.314Z,9.92
2023-04-18T04:50:36.041Z,10.07
2023-04-18T04:57:38.614Z,10.07
2023-04-18T05:04:53.696Z,10.08
2023-04-18T05:11:55.252Z,9.88
2023-04-18T05:18:56.864Z,10.01
2023-04-18T05:25:58.486Z,10.10
2023-04-18T05:33:00.099Z,10.02
2023-04-18T05:40:01.700Z,10.04
2023-04-18T05:47:06.185Z,9.76
2023-04-18T05:54:07.759Z,9.99
2023-04-18T06:01:09.640Z,10.00
2023-04-18T06:08:11.185Z,10.18
2023-04-18T06:15:12.835Z,10.32
2023-04-18T06:22:14.400Z,10.50
2023-04-18T06:29:17.956Z,10.32
2023-04-18T06:36:19.584Z,10.42
2023-04-18T06:43:22.011Z,10.63
2023-04-18T06:50:23.635Z,10.94
2023-04-18T06:57:25.823Z,10.87
2023-04-18T07:04:27.462Z,11.35
2023-04-18T07:11:29.109Z,11.41
2023-04-18T07:18:37.850Z,11.66
2023-04-18T07:25:40.513Z,11.89
2023-04-18T07:32:42.126Z,11.78
2023-04-18T07:39:43.669Z,12.32
2023-04-18T07:46:45.379Z,12.36
2023-04-18T07:53:46.996Z,12.57
2023-04-18T08:00:48.542Z,12.54
2023-04-18T08:07:50.437Z,12.30
2023-04-18T08:14:51.963Z,12.30
2023-04-18T08:21:53.500Z,12.34
2023-04-18T08:28:55.105Z,11.92
2023-04-18T08:35:56.661Z,12.39
2023-04-18T08:42:58.879Z,12.74
2023-04-18T08:50:00.708Z,12.26
2023-04-18T08:57:06.131Z,12.50
2023-04-18T09:04:07.823Z,12.66
2023-04-18T09:11:21.558Z,13.19
2023-04-18T09:18:24.142Z,13.71
2023-04-18T09:25:40.154Z,14.22
2023-04-18T09:32:44.987Z,14.44
2023-04-18T09:39:46.682Z,14.55
2023-04-18T09:46:49.313Z,14.63
2023-04-18T09:53:51.021Z,14.94
2023-04-18T10:00:53.568Z,15.28
2023-04-18T10:07:55.679Z,15.46
2023-04-18T10:14:57.427Z,15.40
2023-04-18T10:22:00.274Z,15.65
2023-04-18T10:29:02.519Z,15.48
2023-04-18T10:36:03.973Z,15.45
2023-04-18T10:43:06.795Z,15.59
2023-04-18T10:50:08.425Z,15.73
2023-04-18T10:57:11.196Z,15.85
2023-04-18T11:04:13.977Z,15.72
2023-04-18T11:11:15.958Z,15.70
2023-04-18T11:18:17.509Z,16.04
2023-04-18T11:25:23.908Z,16.28
2023-04-18T11:32:25.763Z,16.57
2023-04-18T11:39:27.623Z,16.34
2023-04-18T11:46:38.297Z,15.26
2023-04-18T11:53:39.984Z,15.67
2023-04-18T12:00:42.088Z,15.53
2023-04-18T12:07:47.842Z,15.88
2023-04-18T12:15:14.294Z,16.28
2023-04-18T12:22:16.779Z,15.74
2023-04-18T12:29:18.466Z,16.17
2023-04-18T12:36:22.008Z,16.57
2023-04-18T12:43:23.590Z,16.26
2023-04-18T12:50:25.866Z,16.33
2023-04-18T12:57:27.463Z,16.54
2023-04-18T13:04:29.344Z,16.36
2023-04-18T13:11:32.248Z,16.28
2023-04-18T13:18:33.916Z,16.34
2023-04-18T13:25:35.449Z,16.50
2023-04-18T13:32:37.577Z,16.48
2023-04-18T13:39:39.301Z,16.79
2023-04-18T13:46:41.115Z,16.62
2023-04-18T13:53:42.645Z,16.87
2023-04-18T14:00:44.159Z,16.94
2023-04-18T14:07:45.882Z,16.77
2023-04-18T14:14:47.827Z,16.67
2023-04-18T14:21:49.405Z,17.01
2023-04-18T14:28:51.220Z,16.93
2023-04-18T14:35:52.739Z,16.95
2023-04-18T14:42:56.681Z,16.93
2023-04-18T14:49:58.190Z,16.56
2023-04-18T14:56:59.761Z,16.69
2023-04-18T15:04:03.409Z,16.69
2023-04-18T15:11:08.546Z,16.37
2023-04-18T15:18:10.897Z,16.60
2023-04-18T15:25:16.257Z,16.64
2023-04-18T15:32:18.031Z,16.52
2023-04-18T15:39:23.198Z,16.33
2023-04-18T15:46:24.767Z,16.43
2023-04-18T15:53:26.868Z,16.60
2023-04-18T16:00:28.770Z,16.77
2023-04-18T16:07:30.486Z,16.80
2023-04-18T16:14:33.335Z,16.34
2023-04-18T16:21:34.914Z,16.37
2023-04-18T16:28:39.323Z,16.31
2023-04-18T16:35:40.897Z,16.33
2023-04-18T16:42:42.453Z,15.93
2023-04-18T16:49:46.432Z,16.06
2023-04-18T16:56:48.237Z,16.16
2023-04-18T17:03:49.883Z,15.83
2023-04-18T17:10:52.591Z,16.00
2023-04-18T17:17:56.226Z,15.88
2023-04-18T17:24:57.794Z,15.52
2023-04-18T17:31:59.397Z,15.79
2023-04-18T17:39:06.919Z,16.03
2023-04-18T17:46:08.856Z,15.14
2023-04-18T17:53:12.232Z,15.20
2023-04-18T18:00:14.527Z,14.92
2023-04-18T18:07:16.235Z,15.05
2023-04-18T18:14:17.749Z,15.22
2023-04-18T18:21:19.348Z,14.94
2023-04-18T18:28:20.865Z,15.02
2023-04-18T18:35:22.392Z,14.88
2023-04-18T18:42:23.920Z,14.59
2023-04-18T18:49:28.740Z,14.41
2023-04-18T18:56:30.415Z,14.58
2023-04-18T19:03:32.366Z,14.61
2023-04-18T19:10:33.979Z,14.12
2023-04-18T19:17:35.703Z,14.04
2023-04-18T19:24:37.461Z,13.73
2023-04-18T19:31:39.253Z,13.44
2023-04-18T19:38:41.449Z,13.56
2023-04-18T19:45:43.020Z,13.67
2023-04-18T19:52:44.557Z,13.63
2023-04-18T19:59:46.095Z,12.93
2023-04-18T20:06:47.651Z,13.04
2023-04-18T20:13:49.390Z,13.11
2023-04-18T20:20:51.241Z,13.24
2023-04-18T20:27:52.824Z,12.78
2023-04-18T20:34:54.614Z,13.05
2023-04-18T20:41:57.564Z,13.09
2023-04-18T20:48:59.269Z,13.12
2023-04-18T20:56:02.689Z,12.63
2023-04-18T21:03:04.319Z,12.57
2023-04-18T21:10:06.463Z,12.58
2023-04-18T21:17:09.773Z,12.63
2023-04-18T21:24:11.305Z,12.38
2023-04-18T21:31:12.881Z,12.21
2023-04-18T21:38:14.446Z,12.06
2023-04-18T21:45:15.994Z,12.20
2023-04-18T21:52:17.531Z,11.91
2023-04-18T21:59:19.068Z,12.09
2023-04-18T22:06:20.728Z,11.86
2023-04-18T22:13:22.614Z,11.78
2023-04-18T22:20:25.457Z,11.22
2023-04-18T22:27:27.001Z,10.87
2023-04-18T22:34:28.588Z,10.77
2023-04-18T22:41:30.261Z,10.76
2023-04-18T22:48:31.788Z,10.89
2023-04-18T22:55:33.366Z,11.06
2023-04-18T23:02:35.096Z,11.22
2023-04-18T23:09:36.744Z,11.01
2023-04-18T23:16:38.443Z,11.13
2023-04-18T23:23:40.036Z,10.65
2023-04-18T23:30:41.600Z,10.89
2023-04-18T23:37:43.575Z,10.19
2023-04-18T23:44:45.176Z,10.17
2023-04-18T23:51:46.693Z,10.24
2023-04-18T23:58:48.235Z,10.24
